sensor_id;sensor_type;location;lat;lon;timestamp;P1;durP1;ratioP1;P2;durP2;ratioP2
27422;SDS011;14878;50.778;0.258;2022-08-04T00:00:18;30.42;;;14.70;;
27422;SDS011;14878;50.778;0.258;2022-08-04T00:02:55;27.27;;;15.45;;
27422;SDS011;14878;50.778;0.258;2022-08-04T00:07:58;25.10;;;13.15;;
27422;SDS011;14878;50.778;0.258;2022-08-04T00:09:22;22.00;;;12.48;;
27422;SDS011;14878;50.778;0.258;2022-08-04T00:10:29;23.42;;;12.23;;
27422;SDS011;14878;50.778;0.258;2022-08-04T00:11:33;25.57;;;12.83;;
27422;SDS011;14878;50.778;0.258;2022-08-04T00:12:36;24.40;;;12.45;;
27422;SDS011;14878;50.778;0.258;2022-08-04T00:13:42;23.17;;;11.77;;
27422;SDS011;14878;50.778;0.258;2022-08-04T00:14:51;25.77;;;12.18;;
27422;SDS011;14878;50.778;0.258;2022-08-04T00:16:04;27.92;;;13.32;;
27422;SDS011;14878;50.778;0.258;2022-08-04T00:17:07;27.20;;;13.70;;
27422;SDS011;14878;50.778;0.258;2022-08-04T00:18:08;26.73;;;13.20;;
27422;SDS011;14878;50.778;0.258;2022-08-04T00:19:17;23.02;;;12.02;;
27422;SDS011;14878;50.778;0.258;2022-08-04T00:20:28;22.90;;;12.45;;
27422;SDS011;14878;50.778;0.258;2022-08-04T00:21:32;25.52;;;12.27;;
27422;SDS011;14878;50.778;0.258;2022-08-04T00:22:37;20.73;;;11.77;;
27422;SDS011;14878;50.778;0.258;2022-08-04T00:23:44;22.00;;;10.95;;
27422;SDS011;14878;50.778;0.258;2022-08-04T00:24:45;22.87;;;10.83;;
27422;SDS011;14878;50.778;0.258;2022-08-04T00:25:47;22.27;;;10.88;;
27422;SDS011;14878;50.778;0.258;2022-08-04T00:26:48;19.25;;;10.57;;
27422;SDS011;14878;50.778;0.258;2022-08-04T00:27:53;18.45;;;9.65;;
27422;SDS011;14878;50.778;0.258;2022-08-04T00:28:54;19.13;;;10.48;;
27422;SDS011;14878;50.778;0.258;2022-08-04T00:29:55;20.60;;;10.77;;
27422;SDS011;14878;50.778;0.258;2022-08-04T00:30:57;20.35;;;10.07;;
27422;SDS011;14878;50.778;0.258;2022-08-04T00:31:58;24.30;;;10.40;;
27422;SDS011;14878;50.778;0.258;2022-08-04T00:33:01;19.23;;;9.77;;
27422;SDS011;14878;50.778;0.258;2022-08-04T00:34:02;18.00;;;9.93;;
27422;SDS011;14878;50.778;0.258;2022-08-04T00:35:03;19.77;;;10.52;;
27422;SDS011;14878;50.778;0.258;2022-08-04T00:36:05;16.65;;;9.95;;
27422;SDS011;14878;50.778;0.258;2022-08-04T00:37:06;21.83;;;10.37;;
27422;SDS011;14878;50.778;0.258;2022-08-04T00:38:07;19.85;;;10.30;;
27422;SDS011;14878;50.778;0.258;2022-08-04T00:39:13;17.48;;;10.07;;
27422;SDS011;14878;50.778;0.258;2022-08-04T00:43:34;18.42;;;9.73;;
27422;SDS011;14878;50.778;0.258;2022-08-04T00:45:01;20.48;;;10.02;;
27422;SDS011;14878;50.778;0.258;2022-08-04T00:51:43;19.57;;;10.47;;
27422;SDS011;14878;50.778;0.258;2022-08-04T00:52:53;20.15;;;10.90;;
27422;SDS011;14878;50.778;0.258;2022-08-04T00:54:05;20.98;;;10.68;;
27422;SDS011;14878;50.778;0.258;2022-08-04T00:55:33;23.10;;;10.70;;
27422;SDS011;14878;50.778;0.258;2022-08-04T01:01:28;21.00;;;10.88;;
27422;SDS011;14878;50.778;0.258;2022-08-04T01:05:43;21.25;;;11.00;;
27422;SDS011;14878;50.778;0.258;2022-08-04T01:12:39;24.83;;;10.98;;
27422;SDS011;14878;50.778;0.258;2022-08-04T01:15:39;23.23;;;11.18;;
27422;SDS011;14878;50.778;0.258;2022-08-04T01:16:48;22.42;;;11.18;;
27422;SDS011;14878;50.778;0.258;2022-08-04T01:19:12;22.08;;;11.00;;
27422;SDS011;14878;50.778;0.258;2022-08-04T01:20:47;21.55;;;11.50;;
27422;SDS011;14878;50.778;0.258;2022-08-04T01:27:01;25.52;;;12.27;;
27422;SDS011;14878;50.778;0.258;2022-08-04T01:28:28;22.60;;;11.65;;
27422;SDS011;14878;50.778;0.258;2022-08-04T01:30:11;26.60;;;12.18;;
27422;SDS011;14878;50.778;0.258;2022-08-04T01:31:11;29.88;;;12.77;;
27422;SDS011;14878;50.778;0.258;2022-08-04T01:34:04;29.92;;;13.40;;
27422;SDS011;14878;50.778;0.258;2022-08-04T01:36:21;26.63;;;13.25;;
27422;SDS011;14878;50.778;0.258;2022-08-04T01:38:34;25.15;;;13.52;;
27422;SDS011;14878;50.778;0.258;2022-08-04T01:39:41;27.45;;;13.35;;
27422;SDS011;14878;50.778;0.258;2022-08-04T01:40:58;27.50;;;13.23;;
27422;SDS011;14878;50.778;0.258;2022-08-04T01:42:02;26.40;;;12.93;;
27422;SDS011;14878;50.778;0.258;2022-08-04T01:43:04;25.92;;;14.00;;
27422;SDS011;14878;50.778;0.258;2022-08-04T01:44:07;29.40;;;13.93;;
27422;SDS011;14878;50.778;0.258;2022-08-04T01:45:09;25.98;;;13.27;;
27422;SDS011;14878;50.778;0.258;2022-08-04T01:46:15;32.17;;;13.63;;
27422;SDS011;14878;50.778;0.258;2022-08-04T01:47:16;26.65;;;13.68;;
27422;SDS011;14878;50.778;0.258;2022-08-04T01:48:22;26.08;;;12.75;;
27422;SDS011;14878;50.778;0.258;2022-08-04T01:49:26;29.48;;;13.30;;
27422;SDS011;14878;50.778;0.258;2022-08-04T01:50:32;29.37;;;12.67;;
27422;SDS011;14878;50.778;0.258;2022-08-04T01:51:34;27.00;;;12.90;;
27422;SDS011;14878;50.778;0.258;2022-08-04T01:52:42;25.07;;;13.00;;
27422;SDS011;14878;50.778;0.258;2022-08-04T01:53:44;27.92;;;13.50;;
27422;SDS011;14878;50.778;0.258;2022-08-04T01:54:45;27.80;;;12.95;;
27422;SDS011;14878;50.778;0.258;2022-08-04T01:55:47;26.80;;;14.00;;
27422;SDS011;14878;50.778;0.258;2022-08-04T01:56:48;30.20;;;14.95;;
27422;SDS011;14878;50.778;0.258;2022-08-04T01:57:50;27.50;;;12.95;;
27422;SDS011;14878;50.778;0.258;2022-08-04T01:58:51;30.70;;;13.02;;
27422;SDS011;14878;50.778;0.258;2022-08-04T01:59:57;29.48;;;14.05;;
27422;SDS011;14878;50.778;0.258;2022-08-04T02:01:00;34.22;;;14.73;;
27422;SDS011;14878;50.778;0.258;2022-08-04T02:02:04;31.13;;;14.90;;
27422;SDS011;14878;50.778;0.258;2022-08-04T02:03:05;32.15;;;15.80;;
27422;SDS011;14878;50.778;0.258;2022-08-04T02:04:06;34.38;;;15.10;;
27422;SDS011;14878;50.778;0.258;2022-08-04T02:05:10;31.40;;;15.07;;
27422;SDS011;14878;50.778;0.258;2022-08-04T02:09:07;30.65;;;16.70;;
27422;SDS011;14878;50.778;0.258;2022-08-04T02:10:22;31.05;;;16.15;;
27422;SDS011;14878;50.778;0.258;2022-08-04T02:11:44;32.75;;;16.02;;
27422;SDS011;14878;50.778;0.258;2022-08-04T02:15:41;35.22;;;16.60;;
27422;SDS011;14878;50.778;0.258;2022-08-04T02:16:53;35.92;;;16.33;;
27422;SDS011;14878;50.778;0.258;2022-08-04T02:20:44;32.83;;;17.08;;
27422;SDS011;14878;50.778;0.258;2022-08-04T02:21:47;37.92;;;17.70;;
27422;SDS011;14878;50.778;0.258;2022-08-04T02:23:00;30.63;;;17.15;;
27422;SDS011;14878;50.778;0.258;2022-08-04T02:24:08;34.22;;;17.33;;
27422;SDS011;14878;50.778;0.258;2022-08-04T02:25:13;34.20;;;17.30;;
27422;SDS011;14878;50.778;0.258;2022-08-04T02:26:24;31.77;;;17.13;;
27422;SDS011;14878;50.778;0.258;2022-08-04T02:27:28;33.03;;;17.58;;
27422;SDS011;14878;50.778;0.258;2022-08-04T02:30:07;37.65;;;18.27;;
27422;SDS011;14878;50.778;0.258;2022-08-04T02:32:25;35.70;;;17.30;;
27422;SDS011;14878;50.778;0.258;2022-08-04T02:33:30;39.58;;;18.70;;
27422;SDS011;14878;50.778;0.258;2022-08-04T02:35:20;35.20;;;17.23;;
27422;SDS011;14878;50.778;0.258;2022-08-04T02:36:31;33.83;;;18.23;;
27422;SDS011;14878;50.778;0.258;2022-08-04T02:37:38;31.85;;;17.33;;
27422;SDS011;14878;50.778;0.258;2022-08-04T02:38:55;35.90;;;17.25;;
27422;SDS011;14878;50.778;0.258;2022-08-04T02:40:00;31.13;;;17.92;;
27422;SDS011;14878;50.778;0.258;2022-08-04T02:41:03;35.00;;;17.23;;
27422;SDS011;14878;50.778;0.258;2022-08-04T02:42:07;35.88;;;18.10;;
27422;SDS011;14878;50.778;0.258;2022-08-04T02:43:10;38.30;;;18.42;;
27422;SDS011;14878;50.778;0.258;2022-08-04T02:44:19;36.30;;;18.95;;
27422;SDS011;14878;50.778;0.258;2022-08-04T02:45:21;36.20;;;18.95;;
27422;SDS011;14878;50.778;0.258;2022-08-04T02:46:24;35.42;;;18.42;;
27422;SDS011;14878;50.778;0.258;2022-08-04T02:47:26;41.25;;;19.73;;
27422;SDS011;14878;50.778;0.258;2022-08-04T02:48:28;38.97;;;18.40;;
27422;SDS011;14878;50.778;0.258;2022-08-04T02:49:36;38.53;;;19.23;;
27422;SDS011;14878;50.778;0.258;2022-08-04T02:50:38;40.45;;;19.60;;
27422;SDS011;14878;50.778;0.258;2022-08-04T02:51:44;41.45;;;19.85;;
27422;SDS011;14878;50.778;0.258;2022-08-04T02:52:49;41.35;;;19.90;;
27422;SDS011;14878;50.778;0.258;2022-08-04T02:53:53;41.22;;;20.65;;
27422;SDS011;14878;50.778;0.258;2022-08-04T02:54:55;40.30;;;20.83;;
27422;SDS011;14878;50.778;0.258;2022-08-04T02:55:59;41.38;;;21.45;;
27422;SDS011;14878;50.778;0.258;2022-08-04T02:57:01;41.10;;;21.23;;
27422;SDS011;14878;50.778;0.258;2022-08-04T02:58:07;41.60;;;22.05;;
27422;SDS011;14878;50.778;0.258;2022-08-04T02:59:10;44.30;;;21.77;;
27422;SDS011;14878;50.778;0.258;2022-08-04T03:00:12;46.83;;;22.77;;
27422;SDS011;14878;50.778;0.258;2022-08-04T03:01:13;44.47;;;23.23;;
27422;SDS011;14878;50.778;0.258;2022-08-04T03:02:15;49.40;;;22.58;;
27422;SDS011;14878;50.778;0.258;2022-08-04T03:05:57;47.97;;;23.52;;
27422;SDS011;14878;50.778;0.258;2022-08-04T03:11:09;47.60;;;22.20;;
27422;SDS011;14878;50.778;0.258;2022-08-04T03:22:17;50.20;;;23.27;;
27422;SDS011;14878;50.778;0.258;2022-08-04T03:38:53;46.97;;;23.55;;
27422;SDS011;14878;50.778;0.258;2022-08-04T03:42:43;45.05;;;23.42;;
27422;SDS011;14878;50.778;0.258;2022-08-04T03:44:10;51.33;;;23.45;;
27422;SDS011;14878;50.778;0.258;2022-08-04T04:12:10;29.70;;;15.15;;
27422;SDS011;14878;50.778;0.258;2022-08-04T04:23:21;27.45;;;15.13;;
27422;SDS011;14878;50.778;0.258;2022-08-04T04:24:05;29.42;;;15.05;;
27422;SDS011;14878;50.778;0.258;2022-08-04T04:33:27;30.98;;;15.30;;
27422;SDS011;14878;50.778;0.258;2022-08-04T04:54:31;13.02;;;6.93;;
27422;SDS011;14878;50.778;0.258;2022-08-04T04:55:46;11.70;;;6.70;;
27422;SDS011;14878;50.778;0.258;2022-08-04T04:56:58;12.02;;;6.22;;
27422;SDS011;14878;50.778;0.258;2022-08-04T04:58:12;14.90;;;6.13;;
27422;SDS011;14878;50.778;0.258;2022-08-04T04:59:17;13.63;;;5.82;;
27422;SDS011;14878;50.778;0.258;2022-08-04T05:00:25;12.85;;;5.45;;
27422;SDS011;14878;50.778;0.258;2022-08-04T05:03:36;8.80;;;4.60;;
27422;SDS011;14878;50.778;0.258;2022-08-04T05:06:11;7.45;;;4.40;;
27422;SDS011;14878;50.778;0.258;2022-08-04T05:12:17;8.48;;;4.72;;
27422;SDS011;14878;50.778;0.258;2022-08-04T05:13:44;9.18;;;4.50;;
27422;SDS011;14878;50.778;0.258;2022-08-04T05:14:50;10.27;;;4.03;;
27422;SDS011;14878;50.778;0.258;2022-08-04T05:15:55;9.50;;;4.53;;
27422;SDS011;14878;50.778;0.258;2022-08-04T05:17:05;10.18;;;4.43;;
27422;SDS011;14878;50.778;0.258;2022-08-04T05:18:21;8.82;;;4.75;;
27422;SDS011;14878;50.778;0.258;2022-08-04T05:21:15;7.40;;;4.50;;
27422;SDS011;14878;50.778;0.258;2022-08-04T05:23:26;13.18;;;4.40;;
27422;SDS011;14878;50.778;0.258;2022-08-04T05:24:30;7.22;;;4.20;;
27422;SDS011;14878;50.778;0.258;2022-08-04T05:25:38;10.35;;;4.30;;
27422;SDS011;14878;50.778;0.258;2022-08-04T05:26:44;11.32;;;4.30;;
27422;SDS011;14878;50.778;0.258;2022-08-04T05:27:50;8.55;;;3.97;;
27422;SDS011;14878;50.778;0.258;2022-08-04T05:29:05;9.52;;;4.10;;
27422;SDS011;14878;50.778;0.258;2022-08-04T05:30:10;9.80;;;3.75;;
27422;SDS011;14878;50.778;0.258;2022-08-04T05:31:17;8.68;;;4.05;;
27422;SDS011;14878;50.778;0.258;2022-08-04T05:32:23;8.35;;;3.47;;
27422;SDS011;14878;50.778;0.258;2022-08-04T05:33:38;8.52;;;3.47;;
27422;SDS011;14878;50.778;0.258;2022-08-04T05:34:48;8.82;;;3.50;;
27422;SDS011;14878;50.778;0.258;2022-08-04T05:35:53;12.65;;;3.72;;
27422;SDS011;14878;50.778;0.258;2022-08-04T05:36:58;11.27;;;3.67;;
27422;SDS011;14878;50.778;0.258;2022-08-04T05:38:02;8.40;;;2.90;;
27422;SDS011;14878;50.778;0.258;2022-08-04T05:39:04;9.38;;;3.28;;
27422;SDS011;14878;50.778;0.258;2022-08-04T05:40:11;6.95;;;3.00;;
27422;SDS011;14878;50.778;0.258;2022-08-04T05:41:13;7.80;;;2.72;;
27422;SDS011;14878;50.778;0.258;2022-08-04T05:42:15;7.55;;;2.80;;
27422;SDS011;14878;50.778;0.258;2022-08-04T05:43:16;9.73;;;3.53;;
27422;SDS011;14878;50.778;0.258;2022-08-04T05:44:18;7.45;;;2.97;;
27422;SDS011;14878;50.778;0.258;2022-08-04T05:45:22;7.13;;;2.50;;
27422;SDS011;14878;50.778;0.258;2022-08-04T05:46:23;8.27;;;2.80;;
27422;SDS011;14878;50.778;0.258;2022-08-04T05:47:26;4.97;;;2.45;;
27422;SDS011;14878;50.778;0.258;2022-08-04T05:48:28;9.00;;;3.20;;
27422;SDS011;14878;50.778;0.258;2022-08-04T05:49:32;7.00;;;2.33;;
27422;SDS011;14878;50.778;0.258;2022-08-04T05:50:34;7.57;;;2.42;;
27422;SDS011;14878;50.778;0.258;2022-08-04T05:51:36;6.65;;;2.70;;
27422;SDS011;14878;50.778;0.258;2022-08-04T05:52:38;6.03;;;2.30;;
27422;SDS011;14878;50.778;0.258;2022-08-04T05:53:42;6.07;;;2.53;;
27422;SDS011;14878;50.778;0.258;2022-08-04T05:54:46;6.75;;;2.35;;
27422;SDS011;14878;50.778;0.258;2022-08-04T05:55:48;6.57;;;2.47;;
27422;SDS011;14878;50.778;0.258;2022-08-04T05:56:50;8.90;;;2.83;;
27422;SDS011;14878;50.778;0.258;2022-08-04T05:57:54;8.25;;;2.50;;
27422;SDS011;14878;50.778;0.258;2022-08-04T05:58:58;5.70;;;2.63;;
27422;SDS011;14878;50.778;0.258;2022-08-04T06:00:03;6.50;;;2.33;;
27422;SDS011;14878;50.778;0.258;2022-08-04T06:01:07;8.05;;;2.50;;
27422;SDS011;14878;50.778;0.258;2022-08-04T06:02:09;4.80;;;2.70;;
27422;SDS011;14878;50.778;0.258;2022-08-04T06:03:11;7.80;;;2.75;;
27422;SDS011;14878;50.778;0.258;2022-08-04T06:04:13;7.03;;;2.50;;
27422;SDS011;14878;50.778;0.258;2022-08-04T06:05:16;6.38;;;2.53;;
27422;SDS011;14878;50.778;0.258;2022-08-04T06:06:18;5.55;;;2.60;;
27422;SDS011;14878;50.778;0.258;2022-08-04T06:07:20;5.67;;;2.37;;
27422;SDS011;14878;50.778;0.258;2022-08-04T06:08:21;6.75;;;2.50;;
27422;SDS011;14878;50.778;0.258;2022-08-04T06:09:23;7.43;;;3.42;;
27422;SDS011;14878;50.778;0.258;2022-08-04T06:10:24;6.00;;;2.55;;
27422;SDS011;14878;50.778;0.258;2022-08-04T06:11:26;4.85;;;2.50;;
27422;SDS011;14878;50.778;0.258;2022-08-04T06:13:02;7.72;;;2.58;;
27422;SDS011;14878;50.778;0.258;2022-08-04T06:13:58;5.38;;;2.50;;
27422;SDS011;14878;50.778;0.258;2022-08-04T06:15:03;10.45;;;2.70;;
27422;SDS011;14878;50.778;0.258;2022-08-04T06:16:05;7.35;;;2.88;;
27422;SDS011;14878;50.778;0.258;2022-08-04T06:17:08;7.75;;;3.17;;
27422;SDS011;14878;50.778;0.258;2022-08-04T06:18:13;7.33;;;2.57;;
27422;SDS011;14878;50.778;0.258;2022-08-04T06:19:15;6.20;;;2.70;;
27422;SDS011;14878;50.778;0.258;2022-08-04T06:20:17;9.02;;;2.67;;
27422;SDS011;14878;50.778;0.258;2022-08-04T06:21:20;6.93;;;2.78;;
27422;SDS011;14878;50.778;0.258;2022-08-04T06:22:22;7.15;;;2.53;;
27422;SDS011;14878;50.778;0.258;2022-08-04T06:23:24;11.02;;;2.80;;
27422;SDS011;14878;50.778;0.258;2022-08-04T06:24:30;6.13;;;2.60;;
27422;SDS011;14878;50.778;0.258;2022-08-04T06:25:32;7.15;;;2.53;;
27422;SDS011;14878;50.778;0.258;2022-08-04T06:26:37;6.93;;;2.40;;
27422;SDS011;14878;50.778;0.258;2022-08-04T06:27:39;7.55;;;2.72;;
27422;SDS011;14878;50.778;0.258;2022-08-04T06:28:40;5.03;;;2.65;;
27422;SDS011;14878;50.778;0.258;2022-08-04T06:29:42;7.45;;;3.00;;
27422;SDS011;14878;50.778;0.258;2022-08-04T06:30:46;7.85;;;3.40;;
27422;SDS011;14878;50.778;0.258;2022-08-04T06:31:49;7.15;;;2.83;;
27422;SDS011;14878;50.778;0.258;2022-08-04T06:32:58;8.45;;;2.67;;
27422;SDS011;14878;50.778;0.258;2022-08-04T06:34:02;8.88;;;3.00;;
27422;SDS011;14878;50.778;0.258;2022-08-04T06:35:05;6.00;;;2.67;;
27422;SDS011;14878;50.778;0.258;2022-08-04T06:36:07;6.75;;;2.65;;
27422;SDS011;14878;50.778;0.258;2022-08-04T06:37:11;8.55;;;3.00;;
27422;SDS011;14878;50.778;0.258;2022-08-04T06:38:12;4.68;;;2.65;;
27422;SDS011;14878;50.778;0.258;2022-08-04T06:39:13;6.37;;;2.57;;
27422;SDS011;14878;50.778;0.258;2022-08-04T06:40:16;7.75;;;2.85;;
27422;SDS011;14878;50.778;0.258;2022-08-04T06:41:18;6.78;;;2.72;;
27422;SDS011;14878;50.778;0.258;2022-08-04T06:42:21;7.32;;;2.92;;
27422;SDS011;14878;50.778;0.258;2022-08-04T06:43:28;8.48;;;3.10;;
27422;SDS011;14878;50.778;0.258;2022-08-04T06:44:30;8.48;;;2.60;;
27422;SDS011;14878;50.778;0.258;2022-08-04T06:45:34;10.73;;;2.70;;
27422;SDS011;14878;50.778;0.258;2022-08-04T06:46:39;7.97;;;2.70;;
27422;SDS011;14878;50.778;0.258;2022-08-04T06:47:41;6.80;;;2.40;;
27422;SDS011;14878;50.778;0.258;2022-08-04T06:48:43;8.25;;;2.70;;
27422;SDS011;14878;50.778;0.258;2022-08-04T06:49:46;9.43;;;2.67;;
27422;SDS011;14878;50.778;0.258;2022-08-04T06:50:49;6.15;;;2.33;;
27422;SDS011;14878;50.778;0.258;2022-08-04T06:51:50;6.60;;;2.60;;
27422;SDS011;14878;50.778;0.258;2022-08-04T06:52:53;9.63;;;2.70;;
27422;SDS011;14878;50.778;0.258;2022-08-04T06:53:54;10.98;;;2.50;;
27422;SDS011;14878;50.778;0.258;2022-08-04T06:54:55;7.47;;;2.45;;
27422;SDS011;14878;50.778;0.258;2022-08-04T06:55:57;6.50;;;2.20;;
27422;SDS011;14878;50.778;0.258;2022-08-04T06:56:58;8.38;;;2.70;;
27422;SDS011;14878;50.778;0.258;2022-08-04T06:58:01;8.52;;;2.15;;
27422;SDS011;14878;50.778;0.258;2022-08-04T06:59:02;7.97;;;2.33;;
27422;SDS011;14878;50.778;0.258;2022-08-04T07:00:05;7.75;;;2.67;;
27422;SDS011;14878;50.778;0.258;2022-08-04T07:01:10;7.30;;;2.35;;
27422;SDS011;14878;50.778;0.258;2022-08-04T07:02:13;7.50;;;2.20;;
27422;SDS011;14878;50.778;0.258;2022-08-04T07:03:18;5.95;;;2.30;;
27422;SDS011;14878;50.778;0.258;2022-08-04T07:04:20;6.38;;;2.20;;
27422;SDS011;14878;50.778;0.258;2022-08-04T07:05:21;8.98;;;2.58;;
27422;SDS011;14878;50.778;0.258;2022-08-04T07:06:22;7.50;;;2.00;;
27422;SDS011;14878;50.778;0.258;2022-08-04T07:07:24;7.03;;;2.20;;
27422;SDS011;14878;50.778;0.258;2022-08-04T07:08:25;7.45;;;2.38;;
27422;SDS011;14878;50.778;0.258;2022-08-04T07:09:27;8.57;;;2.13;;
27422;SDS011;14878;50.778;0.258;2022-08-04T07:10:28;5.73;;;2.00;;
27422;SDS011;14878;50.778;0.258;2022-08-04T07:11:30;7.82;;;1.88;;
27422;SDS011;14878;50.778;0.258;2022-08-04T07:12:32;5.60;;;1.98;;
27422;SDS011;14878;50.778;0.258;2022-08-04T07:13:34;6.80;;;1.85;;
27422;SDS011;14878;50.778;0.258;2022-08-04T07:14:36;8.23;;;2.08;;
27422;SDS011;14878;50.778;0.258;2022-08-04T07:15:40;7.97;;;1.90;;
27422;SDS011;14878;50.778;0.258;2022-08-04T07:16:44;7.15;;;2.33;;
27422;SDS011;14878;50.778;0.258;2022-08-04T07:17:45;6.55;;;2.17;;
27422;SDS011;14878;50.778;0.258;2022-08-04T07:18:47;6.18;;;2.00;;
27422;SDS011;14878;50.778;0.258;2022-08-04T07:19:47;7.57;;;1.90;;
27422;SDS011;14878;50.778;0.258;2022-08-04T07:20:48;7.55;;;2.10;;
27422;SDS011;14878;50.778;0.258;2022-08-04T07:21:50;6.88;;;2.33;;
27422;SDS011;14878;50.778;0.258;2022-08-04T07:22:51;7.60;;;2.30;;
27422;SDS011;14878;50.778;0.258;2022-08-04T07:23:53;7.07;;;2.00;;
27422;SDS011;14878;50.778;0.258;2022-08-04T07:24:54;6.75;;;2.05;;
27422;SDS011;14878;50.778;0.258;2022-08-04T07:25:56;5.45;;;2.00;;
27422;SDS011;14878;50.778;0.258;2022-08-04T07:26:58;7.53;;;1.95;;
27422;SDS011;14878;50.778;0.258;2022-08-04T07:27:59;8.02;;;2.10;;
27422;SDS011;14878;50.778;0.258;2022-08-04T07:28:59;7.70;;;2.08;;
27422;SDS011;14878;50.778;0.258;2022-08-04T07:30:01;7.05;;;2.10;;
27422;SDS011;14878;50.778;0.258;2022-08-04T07:31:04;8.38;;;1.90;;
27422;SDS011;14878;50.778;0.258;2022-08-04T07:32:08;6.03;;;1.98;;
27422;SDS011;14878;50.778;0.258;2022-08-04T07:33:10;6.97;;;2.28;;
27422;SDS011;14878;50.778;0.258;2022-08-04T07:34:11;6.80;;;2.08;;
27422;SDS011;14878;50.778;0.258;2022-08-04T07:35:12;8.40;;;2.20;;
27422;SDS011;14878;50.778;0.258;2022-08-04T07:36:14;7.22;;;1.98;;
27422;SDS011;14878;50.778;0.258;2022-08-04T07:37:16;7.03;;;1.80;;
27422;SDS011;14878;50.778;0.258;2022-08-04T07:38:17;7.20;;;2.17;;
27422;SDS011;14878;50.778;0.258;2022-08-04T07:39:18;7.50;;;1.90;;
27422;SDS011;14878;50.778;0.258;2022-08-04T07:40:20;7.60;;;2.03;;
27422;SDS011;14878;50.778;0.258;2022-08-04T07:41:22;5.40;;;1.90;;
27422;SDS011;14878;50.778;0.258;2022-08-04T07:42:24;7.00;;;1.77;;
27422;SDS011;14878;50.778;0.258;2022-08-04T07:43:25;7.25;;;1.83;;
27422;SDS011;14878;50.778;0.258;2022-08-04T07:44:26;5.75;;;1.58;;
27422;SDS011;14878;50.778;0.258;2022-08-04T07:45:28;6.95;;;1.90;;
27422;SDS011;14878;50.778;0.258;2022-08-04T07:46:29;5.70;;;1.90;;
27422;SDS011;14878;50.778;0.258;2022-08-04T07:47:30;6.20;;;1.80;;
27422;SDS011;14878;50.778;0.258;2022-08-04T07:48:31;6.40;;;1.83;;
27422;SDS011;14878;50.778;0.258;2022-08-04T07:49:31;5.82;;;1.80;;
27422;SDS011;14878;50.778;0.258;2022-08-04T07:50:33;7.25;;;2.05;;
27422;SDS011;14878;50.778;0.258;2022-08-04T07:51:35;5.85;;;1.55;;
27422;SDS011;14878;50.778;0.258;2022-08-04T07:52:36;5.72;;;1.88;;
27422;SDS011;14878;50.778;0.258;2022-08-04T07:53:38;7.05;;;2.00;;
27422;SDS011;14878;50.778;0.258;2022-08-04T07:54:41;4.97;;;1.95;;
27422;SDS011;14878;50.778;0.258;2022-08-04T07:55:45;6.25;;;1.80;;
27422;SDS011;14878;50.778;0.258;2022-08-04T07:56:47;5.38;;;1.80;;
27422;SDS011;14878;50.778;0.258;2022-08-04T07:57:49;5.78;;;1.50;;
27422;SDS011;14878;50.778;0.258;2022-08-04T07:58:49;8.00;;;1.80;;
27422;SDS011;14878;50.778;0.258;2022-08-04T07:59:50;8.32;;;1.70;;
27422;SDS011;14878;50.778;0.258;2022-08-04T08:00:51;7.53;;;1.60;;
27422;SDS011;14878;50.778;0.258;2022-08-04T08:01:52;6.40;;;1.93;;
27422;SDS011;14878;50.778;0.258;2022-08-04T08:02:54;6.22;;;1.60;;
27422;SDS011;14878;50.778;0.258;2022-08-04T08:03:56;5.80;;;1.77;;
27422;SDS011;14878;50.778;0.258;2022-08-04T08:04:58;4.43;;;1.70;;
27422;SDS011;14878;50.778;0.258;2022-08-04T08:05:59;7.38;;;1.73;;
27422;SDS011;14878;50.778;0.258;2022-08-04T08:07:00;4.23;;;1.60;;
27422;SDS011;14878;50.778;0.258;2022-08-04T08:08:00;5.53;;;1.50;;
27422;SDS011;14878;50.778;0.258;2022-08-04T08:10:15;9.02;;;1.90;;
27422;SDS011;14878;50.778;0.258;2022-08-04T08:11:17;9.95;;;1.98;;
27422;SDS011;14878;50.778;0.258;2022-08-04T08:12:18;4.05;;;1.45;;
27422;SDS011;14878;50.778;0.258;2022-08-04T08:13:20;5.40;;;1.52;;
27422;SDS011;14878;50.778;0.258;2022-08-04T08:14:21;5.00;;;1.60;;
27422;SDS011;14878;50.778;0.258;2022-08-04T08:15:22;5.55;;;1.77;;
27422;SDS011;14878;50.778;0.258;2022-08-04T08:16:23;6.03;;;1.45;;
27422;SDS011;14878;50.778;0.258;2022-08-04T08:17:25;7.03;;;2.00;;
27422;SDS011;14878;50.778;0.258;2022-08-04T08:18:26;7.13;;;1.40;;
27422;SDS011;14878;50.778;0.258;2022-08-04T08:19:27;6.57;;;1.63;;
27422;SDS011;14878;50.778;0.258;2022-08-04T08:20:29;6.07;;;1.50;;
27422;SDS011;14878;50.778;0.258;2022-08-04T08:21:31;7.20;;;1.75;;
27422;SDS011;14878;50.778;0.258;2022-08-04T08:22:32;6.68;;;1.33;;
27422;SDS011;14878;50.778;0.258;2022-08-04T08:23:34;10.43;;;1.75;;
27422;SDS011;14878;50.778;0.258;2022-08-04T08:24:35;6.55;;;1.52;;
27422;SDS011;14878;50.778;0.258;2022-08-04T08:25:37;7.10;;;1.90;;
27422;SDS011;14878;50.778;0.258;2022-08-04T08:26:38;5.97;;;1.52;;
27422;SDS011;14878;50.778;0.258;2022-08-04T08:27:40;5.40;;;1.40;;
27422;SDS011;14878;50.778;0.258;2022-08-04T08:28:41;8.60;;;1.67;;
27422;SDS011;14878;50.778;0.258;2022-08-04T08:29:42;5.07;;;1.55;;
27422;SDS011;14878;50.778;0.258;2022-08-04T08:30:44;5.63;;;1.50;;
27422;SDS011;14878;50.778;0.258;2022-08-04T08:31:44;5.20;;;1.63;;
27422;SDS011;14878;50.778;0.258;2022-08-04T08:32:45;5.65;;;1.60;;
27422;SDS011;14878;50.778;0.258;2022-08-04T08:33:46;7.25;;;1.60;;
27422;SDS011;14878;50.778;0.258;2022-08-04T08:34:49;5.32;;;1.85;;
27422;SDS011;14878;50.778;0.258;2022-08-04T08:37:11;8.27;;;1.73;;
27422;SDS011;14878;50.778;0.258;2022-08-04T08:38:13;6.22;;;1.65;;
27422;SDS011;14878;50.778;0.258;2022-08-04T08:39:21;5.88;;;1.55;;
27422;SDS011;14878;50.778;0.258;2022-08-04T08:45:40;5.95;;;1.52;;
27422;SDS011;14878;50.778;0.258;2022-08-04T08:47:00;10.38;;;1.95;;
27422;SDS011;14878;50.778;0.258;2022-08-04T08:55:44;5.55;;;1.52;;
27422;SDS011;14878;50.778;0.258;2022-08-04T09:01:57;7.03;;;1.88;;
27422;SDS011;14878;50.778;0.258;2022-08-04T09:03:16;7.30;;;1.58;;
27422;SDS011;14878;50.778;0.258;2022-08-04T09:04:56;6.25;;;1.55;;
27422;SDS011;14878;50.778;0.258;2022-08-04T09:07:26;5.18;;;1.70;;
27422;SDS011;14878;50.778;0.258;2022-08-04T09:10:59;7.43;;;1.63;;
27422;SDS011;14878;50.778;0.258;2022-08-04T09:13:36;7.40;;;1.80;;
27422;SDS011;14878;50.778;0.258;2022-08-04T09:17:28;5.93;;;1.50;;
27422;SDS011;14878;50.778;0.258;2022-08-04T09:19:50;3.92;;;1.30;;
27422;SDS011;14878;50.778;0.258;2022-08-04T09:21:01;5.17;;;1.47;;
27422;SDS011;14878;50.778;0.258;2022-08-04T09:26:10;7.72;;;2.13;;
27422;SDS011;14878;50.778;0.258;2022-08-04T09:27:17;7.22;;;2.13;;
27422;SDS011;14878;50.778;0.258;2022-08-04T09:28:25;7.25;;;1.77;;
27422;SDS011;14878;50.778;0.258;2022-08-04T09:30:47;6.97;;;1.80;;
27422;SDS011;14878;50.778;0.258;2022-08-04T09:35:58;8.48;;;1.70;;
27422;SDS011;14878;50.778;0.258;2022-08-04T09:37:41;5.97;;;1.90;;
27422;SDS011;14878;50.778;0.258;2022-08-04T09:43:48;6.32;;;1.67;;
27422;SDS011;14878;50.778;0.258;2022-08-04T09:45:06;6.35;;;1.67;;
27422;SDS011;14878;50.778;0.258;2022-08-04T09:46:22;8.13;;;1.60;;
27422;SDS011;14878;50.778;0.258;2022-08-04T09:47:59;6.47;;;1.50;;
27422;SDS011;14878;50.778;0.258;2022-08-04T09:56:13;9.43;;;1.77;;
27422;SDS011;14878;50.778;0.258;2022-08-04T10:00:59;8.95;;;1.90;;
27422;SDS011;14878;50.778;0.258;2022-08-04T10:02:08;7.75;;;1.90;;
27422;SDS011;14878;50.778;0.258;2022-08-04T10:03:13;10.07;;;2.63;;
27422;SDS011;14878;50.778;0.258;2022-08-04T10:04:15;7.47;;;2.03;;
27422;SDS011;14878;50.778;0.258;2022-08-04T10:05:24;6.63;;;1.77;;
27422;SDS011;14878;50.778;0.258;2022-08-04T10:08:13;8.15;;;2.00;;